sensor_id;sensor_type;location;lat;lon;timestamp;P1;durP1;ratioP1;P2;durP2;ratioP2
10823;SDS011;39116;59.332;18.034;2024-01-15T00:00:43;1.30;;;0.77;;
10823;SDS011;39116;59.332;18.034;2024-01-15T00:03:05;2.90;;;0.97;;
10823;SDS011;39116;59.332;18.034;2024-01-15T00:05:27;1.93;;;0.90;;
10823;SDS011;39116;59.332;18.034;2024-01-15T00:07:49;2.60;;;1.00;;
10823;SDS011;39116;59.332;18.034;2024-01-15T00:10:10;2.07;;;1.10;;
10823;SDS011;39116;59.332;18.034;2024-01-15T00:12:32;5.03;;;1.10;;
10823;SDS011;39116;59.332;18.034;2024-01-15T00:14:54;3.63;;;0.97;;
10823;SDS011;39116;59.332;18.034;2024-01-15T00:17:17;2.53;;;0.80;;
10823;SDS011;39116;59.332;18.034;2024-01-15T00:19:38;3.10;;;0.80;;
10823;SDS011;39116;59.332;18.034;2024-01-15T00:22:00;2.93;;;1.20;;
10823;SDS011;39116;59.332;18.034;2024-01-15T00:24:22;2.00;;;0.90;;
10823;SDS011;39116;59.332;18.034;2024-01-15T00:26:43;1.47;;;0.63;;
10823;SDS011;39116;59.332;18.034;2024-01-15T00:29:06;3.53;;;1.23;;
10823;SDS011;39116;59.332;18.034;2024-01-15T00:31:28;2.60;;;0.80;;
10823;SDS011;39116;59.332;18.034;2024-01-15T00:33:51;1.97;;;0.90;;
10823;SDS011;39116;59.332;18.034;2024-01-15T00:36:13;2.50;;;0.70;;
10823;SDS011;39116;59.332;18.034;2024-01-15T00:38:35;1.90;;;0.80;;
10823;SDS011;39116;59.332;18.034;2024-01-15T00:40:57;1.90;;;0.90;;
10823;SDS011;39116;59.332;18.034;2024-01-15T00:43:18;1.37;;;0.90;;
10823;SDS011;39116;59.332;18.034;2024-01-15T00:45:40;3.10;;;0.80;;
10823;SDS011;39116;59.332;18.034;2024-01-15T00:48:02;3.00;;;0.80;;
10823;SDS011;39116;59.332;18.034;2024-01-15T00:50:25;3.80;;;0.90;;
10823;SDS011;39116;59.332;18.034;2024-01-15T00:52:47;1.37;;;0.93;;
10823;SDS011;39116;59.332;18.034;2024-01-15T00:55:08;1.63;;;0.70;;
10823;SDS011;39116;59.332;18.034;2024-01-15T00:57:30;1.37;;;0.80;;
10823;SDS011;39116;59.332;18.034;2024-01-15T00:59:53;2.43;;;0.90;;
10823;SDS011;39116;59.332;18.034;2024-01-15T01:02:14;1.67;;;0.90;;
10823;SDS011;39116;59.332;18.034;2024-01-15T01:04:36;2.17;;;0.80;;
10823;SDS011;39116;59.332;18.034;2024-01-15T01:06:59;1.50;;;0.70;;
10823;SDS011;39116;59.332;18.034;2024-01-15T01:09:21;1.30;;;0.73;;
10823;SDS011;39116;59.332;18.034;2024-01-15T01:11:43;3.73;;;0.97;;
10823;SDS011;39116;59.332;18.034;2024-01-15T01:14:05;1.43;;;0.70;;
10823;SDS011;39116;59.332;18.034;2024-01-15T01:16:26;1.87;;;0.90;;
10823;SDS011;39116;59.332;18.034;2024-01-15T01:18:48;1.90;;;0.93;;
10823;SDS011;39116;59.332;18.034;2024-01-15T01:21:10;2.07;;;0.80;;
10823;SDS011;39116;59.332;18.034;2024-01-15T01:23:33;3.27;;;1.10;;
10823;SDS011;39116;59.332;18.034;2024-01-15T01:25:55;1.63;;;0.80;;
10823;SDS011;39116;59.332;18.034;2024-01-15T01:28:16;3.17;;;0.80;;
10823;SDS011;39116;59.332;18.034;2024-01-15T01:30:38;1.03;;;0.60;;
10823;SDS011;39116;59.332;18.034;2024-01-15T01:33:00;2.97;;;0.80;;
10823;SDS011;39116;59.332;18.034;2024-01-15T01:35:22;6.23;;;0.87;;
10823;SDS011;39116;59.332;18.034;2024-01-15T01:37:43;1.37;;;0.70;;
10823;SDS011;39116;59.332;18.034;2024-01-15T01:40:07;1.30;;;0.80;;
10823;SDS011;39116;59.332;18.034;2024-01-15T01:42:29;1.67;;;1.00;;
10823;SDS011;39116;59.332;18.034;2024-01-15T01:44:51;3.47;;;0.93;;
10823;SDS011;39116;59.332;18.034;2024-01-15T01:47:12;4.97;;;1.13;;
10823;SDS011;39116;59.332;18.034;2024-01-15T01:49:35;1.23;;;0.70;;
10823;SDS011;39116;59.332;18.034;2024-01-15T01:51:59;2.20;;;1.23;;
10823;SDS011;39116;59.332;18.034;2024-01-15T01:54:21;2.17;;;0.70;;
10823;SDS011;39116;59.332;18.034;2024-01-15T01:56:44;3.00;;;0.90;;
10823;SDS011;39116;59.332;18.034;2024-01-15T01:59:06;3.20;;;1.07;;
10823;SDS011;39116;59.332;18.034;2024-01-15T02:01:29;1.73;;;0.70;;
10823;SDS011;39116;59.332;18.034;2024-01-15T02:03:50;4.30;;;0.90;;
10823;SDS011;39116;59.332;18.034;2024-01-15T02:06:12;2.33;;;0.70;;
10823;SDS011;39116;59.332;18.034;2024-01-15T02:08:34;3.87;;;1.00;;
10823;SDS011;39116;59.332;18.034;2024-01-15T02:10:56;3.27;;;0.90;;
10823;SDS011;39116;59.332;18.034;2024-01-15T02:13:20;3.50;;;0.90;;
10823;SDS011;39116;59.332;18.034;2024-01-15T02:15:41;1.53;;;0.80;;
10823;SDS011;39116;59.332;18.034;2024-01-15T02:18:04;3.57;;;1.00;;
10823;SDS011;39116;59.332;18.034;2024-01-15T02:20:27;2.70;;;0.90;;
10823;SDS011;39116;59.332;18.034;2024-01-15T02:22:49;2.10;;;1.00;;
10823;SDS011;39116;59.332;18.034;2024-01-15T02:25:12;4.03;;;0.97;;
10823;SDS011;39116;59.332;18.034;2024-01-15T02:27:33;2.97;;;1.00;;
10823;SDS011;39116;59.332;18.034;2024-01-15T02:29:55;3.30;;;0.97;;
10823;SDS011;39116;59.332;18.034;2024-01-15T02:32:17;2.27;;;0.70;;
10823;SDS011;39116;59.332;18.034;2024-01-15T02:34:39;4.63;;;1.23;;
10823;SDS011;39116;59.332;18.034;2024-01-15T02:37:01;2.40;;;0.70;;
10823;SDS011;39116;59.332;18.034;2024-01-15T02:39:23;2.20;;;0.87;;
10823;SDS011;39116;59.332;18.034;2024-01-15T02:41:46;1.90;;;0.83;;
10823;SDS011;39116;59.332;18.034;2024-01-15T02:44:07;1.33;;;0.90;;
10823;SDS011;39116;59.332;18.034;2024-01-15T02:46:29;0.87;;;0.70;;
10823;SDS011;39116;59.332;18.034;2024-01-15T02:48:51;1.53;;;1.00;;
10823;SDS011;39116;59.332;18.034;2024-01-15T02:51:12;1.50;;;0.90;;
10823;SDS011;39116;59.332;18.034;2024-01-15T02:53:35;2.73;;;0.73;;
10823;SDS011;39116;59.332;18.034;2024-01-15T02:55:57;1.90;;;1.00;;
10823;SDS011;39116;59.332;18.034;2024-01-15T02:58:20;4.33;;;1.07;;
10823;SDS011;39116;59.332;18.034;2024-01-15T03:00:42;4.70;;;1.03;;
10823;SDS011;39116;59.332;18.034;2024-01-15T03:03:04;2.07;;;0.80;;
10823;SDS011;39116;59.332;18.034;2024-01-15T03:05:24;1.00;;;0.70;;
10823;SDS011;39116;59.332;18.034;2024-01-15T03:07:46;3.63;;;1.00;;
10823;SDS011;39116;59.332;18.034;2024-01-15T03:10:08;2.57;;;0.90;;
10823;SDS011;39116;59.332;18.034;2024-01-15T03:12:30;2.57;;;0.80;;
10823;SDS011;39116;59.332;18.034;2024-01-15T03:14:53;3.77;;;1.00;;
10823;SDS011;39116;59.332;18.034;2024-01-15T03:17:15;1.07;;;0.70;;
10823;SDS011;39116;59.332;18.034;2024-01-15T03:19:37;1.67;;;0.80;;
10823;SDS011;39116;59.332;18.034;2024-01-15T03:21:58;2.97;;;0.80;;
10823;SDS011;39116;59.332;18.034;2024-01-15T03:24:20;3.20;;;0.80;;
10823;SDS011;39116;59.332;18.034;2024-01-15T03:26:42;3.00;;;1.10;;
10823;SDS011;39116;59.332;18.034;2024-01-15T03:29:04;5.93;;;1.20;;
10823;SDS011;39116;59.332;18.034;2024-01-15T03:31:27;2.33;;;0.80;;
10823;SDS011;39116;59.332;18.034;2024-01-15T03:33:49;1.83;;;0.80;;
10823;SDS011;39116;59.332;18.034;2024-01-15T03:36:11;0.77;;;0.60;;
10823;SDS011;39116;59.332;18.034;2024-01-15T03:38:32;3.57;;;0.70;;
10823;SDS011;39116;59.332;18.034;2024-01-15T03:40:54;2.50;;;1.00;;
10823;SDS011;39116;59.332;18.034;2024-01-15T03:43:16;2.23;;;0.80;;
10823;SDS011;39116;59.332;18.034;2024-01-15T03:45:38;1.97;;;0.90;;
10823;SDS011;39116;59.332;18.034;2024-01-15T03:48:01;3.13;;;0.93;;
10823;SDS011;39116;59.332;18.034;2024-01-15T03:50:23;3.43;;;1.13;;
10823;SDS011;39116;59.332;18.034;2024-01-15T03:52:45;2.00;;;0.90;;
10823;SDS011;39116;59.332;18.034;2024-01-15T03:55:07;4.20;;;0.97;;
10823;SDS011;39116;59.332;18.034;2024-01-15T03:57:29;1.37;;;0.83;;
10823;SDS011;39116;59.332;18.034;2024-01-15T03:59:50;4.30;;;1.10;;
10823;SDS011;39116;59.332;18.034;2024-01-15T04:02:12;2.53;;;1.00;;
10823;SDS011;39116;59.332;18.034;2024-01-15T04:04:36;2.30;;;1.00;;
10823;SDS011;39116;59.332;18.034;2024-01-15T04:06:57;2.43;;;0.90;;
10823;SDS011;39116;59.332;18.034;2024-01-15T04:09:19;2.03;;;1.10;;
10823;SDS011;39116;59.332;18.034;2024-01-15T04:11:41;1.30;;;1.00;;
10823;SDS011;39116;59.332;18.034;2024-01-15T04:14:02;2.07;;;0.90;;
10823;SDS011;39116;59.332;18.034;2024-01-15T04:16:24;2.57;;;1.30;;
10823;SDS011;39116;59.332;18.034;2024-01-15T04:18:46;1.73;;;0.90;;
10823;SDS011;39116;59.332;18.034;2024-01-15T04:21:09;4.03;;;1.20;;
10823;SDS011;39116;59.332;18.034;2024-01-15T04:23:31;2.47;;;1.20;;
10823;SDS011;39116;59.332;18.034;2024-01-15T04:25:53;2.13;;;1.10;;
10823;SDS011;39116;59.332;18.034;2024-01-15T04:28:14;1.50;;;1.07;;
10823;SDS011;39116;59.332;18.034;2024-01-15T04:30:36;3.83;;;1.30;;
10823;SDS011;39116;59.332;18.034;2024-01-15T04:32:58;2.60;;;1.00;;
10823;SDS011;39116;59.332;18.034;2024-01-15T04:35:20;2.17;;;1.20;;
10823;SDS011;39116;59.332;18.034;2024-01-15T04:37:43;2.70;;;1.20;;
10823;SDS011;39116;59.332;18.034;2024-01-15T04:40:05;4.70;;;1.30;;
10823;SDS011;39116;59.332;18.034;2024-01-15T04:42:27;4.13;;;1.30;;
10823;SDS011;39116;59.332;18.034;2024-01-15T04:44:49;1.80;;;1.20;;
10823;SDS011;39116;59.332;18.034;2024-01-15T04:47:11;1.97;;;1.10;;
10823;SDS011;39116;59.332;18.034;2024-01-15T04:49:33;2.50;;;1.10;;
10823;SDS011;39116;59.332;18.034;2024-01-15T04:51:54;2.83;;;1.37;;
10823;SDS011;39116;59.332;18.034;2024-01-15T04:54:18;1.83;;;1.30;;
10823;SDS011;39116;59.332;18.034;2024-01-15T04:56:40;1.73;;;1.40;;
10823;SDS011;39116;59.332;18.034;2024-01-15T04:59:02;2.03;;;1.50;;
10823;SDS011;39116;59.332;18.034;2024-01-15T05:01:23;2.43;;;1.30;;
10823;SDS011;39116;59.332;18.034;2024-01-15T05:03:45;1.67;;;1.10;;
10823;SDS011;39116;59.332;18.034;2024-01-15T05:06:07;3.73;;;1.87;;
10823;SDS011;39116;59.332;18.034;2024-01-15T05:08:28;3.57;;;1.40;;
10823;SDS011;39116;59.332;18.034;2024-01-15T05:10:52;2.77;;;1.40;;
10823;SDS011;39116;59.332;18.034;2024-01-15T05:13:13;2.43;;;1.40;;
10823;SDS011;39116;59.332;18.034;2024-01-15T05:15:35;2.20;;;1.30;;
10823;SDS011;39116;59.332;18.034;2024-01-15T05:17:57;1.87;;;1.30;;
10823;SDS011;39116;59.332;18.034;2024-01-15T05:20:19;3.07;;;1.57;;
10823;SDS011;39116;59.332;18.034;2024-01-15T05:22:40;1.63;;;1.40;;
10823;SDS011;39116;59.332;18.034;2024-01-15T05:25:02;3.20;;;1.70;;
10823;SDS011;39116;59.332;18.034;2024-01-15T05:27:25;3.33;;;1.63;;
10823;SDS011;39116;59.332;18.034;2024-01-15T05:29:48;3.57;;;1.77;;
10823;SDS011;39116;59.332;18.034;2024-01-15T05:32:11;2.50;;;1.70;;
10823;SDS011;39116;59.332;18.034;2024-01-15T05:34:33;2.47;;;1.70;;
10823;SDS011;39116;59.332;18.034;2024-01-15T05:36:53;3.10;;;1.50;;
10823;SDS011;39116;59.332;18.034;2024-01-15T05:39:15;3.00;;;1.70;;
10823;SDS011;39116;59.332;18.034;2024-01-15T05:41:37;2.60;;;1.50;;
10823;SDS011;39116;59.332;18.034;2024-01-15T05:44:00;6.87;;;1.90;;
10823;SDS011;39116;59.332;18.034;2024-01-15T05:46:22;2.77;;;1.63;;
10823;SDS011;39116;59.332;18.034;2024-01-15T05:48:44;3.27;;;1.97;;
10823;SDS011;39116;59.332;18.034;2024-01-15T05:51:06;2.67;;;1.90;;
10823;SDS011;39116;59.332;18.034;2024-01-15T05:53:27;5.30;;;1.83;;
10823;SDS011;39116;59.332;18.034;2024-01-15T05:55:49;6.43;;;1.70;;
10823;SDS011;39116;59.332;18.034;2024-01-15T05:58:11;2.00;;;1.80;;
10823;SDS011;39116;59.332;18.034;2024-01-15T06:00:34;3.17;;;1.90;;
10823;SDS011;39116;59.332;18.034;2024-01-15T06:02:56;3.17;;;1.90;;
10823;SDS011;39116;59.332;18.034;2024-01-15T06:05:18;2.70;;;1.70;;
10823;SDS011;39116;59.332;18.034;2024-01-15T06:07:39;4.57;;;2.03;;
10823;SDS011;39116;59.332;18.034;2024-01-15T06:10:01;2.83;;;1.80;;
10823;SDS011;39116;59.332;18.034;2024-01-15T06:12:23;1.50;;;1.40;;
10823;SDS011;39116;59.332;18.034;2024-01-15T06:14:45;3.57;;;1.47;;
10823;SDS011;39116;59.332;18.034;2024-01-15T06:17:08;3.40;;;1.80;;
10823;SDS011;39116;59.332;18.034;2024-01-15T06:19:31;2.20;;;1.60;;
10823;SDS011;39116;59.332;18.034;2024-01-15T06:21:52;3.60;;;1.70;;
10823;SDS011;39116;59.332;18.034;2024-01-15T06:24:15;3.90;;;2.03;;
10823;SDS011;39116;59.332;18.034;2024-01-15T06:26:38;1.83;;;1.50;;
10823;SDS011;39116;59.332;18.034;2024-01-15T06:28:59;2.23;;;1.50;;
10823;SDS011;39116;59.332;18.034;2024-01-15T06:31:23;4.77;;;1.97;;
10823;SDS011;39116;59.332;18.034;2024-01-15T06:33:46;2.03;;;1.60;;
10823;SDS011;39116;59.332;18.034;2024-01-15T06:36:09;3.43;;;2.00;;
10823;SDS011;39116;59.332;18.034;2024-01-15T06:38:31;4.03;;;2.20;;
10823;SDS011;39116;59.332;18.034;2024-01-15T06:40:52;4.60;;;2.30;;
10823;SDS011;39116;59.332;18.034;2024-01-15T06:43:14;4.47;;;2.83;;
10823;SDS011;39116;59.332;18.034;2024-01-15T06:45:36;4.23;;;2.67;;
10823;SDS011;39116;59.332;18.034;2024-01-15T06:47:58;5.23;;;2.73;;
10823;SDS011;39116;59.332;18.034;2024-01-15T06:50:21;4.30;;;2.60;;
10823;SDS011;39116;59.332;18.034;2024-01-15T06:52:43;4.13;;;2.50;;
10823;SDS011;39116;59.332;18.034;2024-01-15T06:55:05;3.90;;;2.50;;
10823;SDS011;39116;59.332;18.034;2024-01-15T06:57:27;3.47;;;2.30;;
10823;SDS011;39116;59.332;18.034;2024-01-15T06:59:49;5.27;;;2.80;;
10823;SDS011;39116;59.332;18.034;2024-01-15T07:02:11;5.80;;;2.93;;
10823;SDS011;39116;59.332;18.034;2024-01-15T07:04:34;5.27;;;3.00;;
10823;SDS011;39116;59.332;18.034;2024-01-15T07:06:57;3.17;;;2.57;;
10823;SDS011;39116;59.332;18.034;2024-01-15T07:09:18;3.83;;;2.83;;
10823;SDS011;39116;59.332;18.034;2024-01-15T07:11:44;4.43;;;2.70;;
10823;SDS011;39116;59.332;18.034;2024-01-15T07:14:05;5.03;;;2.57;;
10823;SDS011;39116;59.332;18.034;2024-01-15T07:16:27;4.80;;;2.53;;
10823;SDS011;39116;59.332;18.034;2024-01-15T07:18:49;4.20;;;2.50;;
10823;SDS011;39116;59.332;18.034;2024-01-15T07:21:10;2.83;;;2.20;;
10823;SDS011;39116;59.332;18.034;2024-01-15T07:23:34;2.40;;;2.00;;
10823;SDS011;39116;59.332;18.034;2024-01-15T07:25:55;3.07;;;2.30;;
10823;SDS011;39116;59.332;18.034;2024-01-15T07:28:17;3.07;;;1.80;;
10823;SDS011;39116;59.332;18.034;2024-01-15T07:30:39;3.03;;;2.20;;
10823;SDS011;39116;59.332;18.034;2024-01-15T07:33:00;3.13;;;2.20;;
10823;SDS011;39116;59.332;18.034;2024-01-15T07:35:24;3.67;;;2.00;;
10823;SDS011;39116;59.332;18.034;2024-01-15T07:37:46;3.20;;;1.93;;
10823;SDS011;39116;59.332;18.034;2024-01-15T07:40:10;2.80;;;1.63;;
10823;SDS011;39116;59.332;18.034;2024-01-15T07:42:32;5.43;;;1.80;;
10823;SDS011;39116;59.332;18.034;2024-01-15T07:44:54;1.80;;;1.50;;
10823;SDS011;39116;59.332;18.034;2024-01-15T07:47:16;7.87;;;1.77;;
10823;SDS011;39116;59.332;18.034;2024-01-15T07:49:38;2.07;;;1.37;;
10823;SDS011;39116;59.332;18.034;2024-01-15T07:51:59;6.20;;;1.57;;
10823;SDS011;39116;59.332;18.034;2024-01-15T07:54:21;3.00;;;1.50;;
10823;SDS011;39116;59.332;18.034;2024-01-15T07:59:21;2.03;;;1.00;;
10823;SDS011;39116;59.332;18.034;2024-01-15T08:01:43;3.13;;;1.30;;
10823;SDS011;39116;59.332;18.034;2024-01-15T08:04:05;5.73;;;1.40;;
10823;SDS011;39116;59.332;18.034;2024-01-15T08:06:26;1.33;;;0.90;;
10823;SDS011;39116;59.332;18.034;2024-01-15T08:08:48;1.83;;;0.90;;
10823;SDS011;39116;59.332;18.034;2024-01-15T08:11:09;1.97;;;0.73;;
10823;SDS011;39116;59.332;18.034;2024-01-15T08:13:31;2.47;;;1.03;;
10823;SDS011;39116;59.332;18.034;2024-01-15T08:15:55;1.73;;;1.00;;
10823;SDS011;39116;59.332;18.034;2024-01-15T08:18:16;2.23;;;1.23;;
10823;SDS011;39116;59.332;18.034;2024-01-15T08:20:38;1.40;;;0.90;;
10823;SDS011;39116;59.332;18.034;2024-01-15T08:23:00;4.30;;;1.03;;
10823;SDS011;39116;59.332;18.034;2024-01-15T08:25:24;2.30;;;0.97;;
10823;SDS011;39116;59.332;18.034;2024-01-15T08:27:46;2.80;;;1.10;;
10823;SDS011;39116;59.332;18.034;2024-01-15T08:30:08;2.13;;;1.00;;
10823;SDS011;39116;59.332;18.034;2024-01-15T08:32:31;2.00;;;1.00;;
10823;SDS011;39116;59.332;18.034;2024-01-15T08:34:53;4.80;;;1.03;;
10823;SDS011;39116;59.332;18.034;2024-01-15T08:37:14;2.67;;;1.00;;
10823;SDS011;39116;59.332;18.034;2024-01-15T08:39:36;1.93;;;0.90;;
10823;SDS011;39116;59.332;18.034;2024-01-15T08:41:58;1.10;;;0.70;;
10823;SDS011;39116;59.332;18.034;2024-01-15T08:44:20;2.53;;;0.90;;
10823;SDS011;39116;59.332;18.034;2024-01-15T08:46:42;2.40;;;1.23;;
10823;SDS011;39116;59.332;18.034;2024-01-15T08:49:05;1.97;;;0.60;;
10823;SDS011;39116;59.332;18.034;2024-01-15T08:51:27;1.83;;;1.00;;
10823;SDS011;39116;59.332;18.034;2024-01-15T08:53:49;2.17;;;0.90;;
10823;SDS011;39116;59.332;18.034;2024-01-15T08:56:10;1.43;;;0.87;;
10823;SDS011;39116;59.332;18.034;2024-01-15T08:58:32;1.17;;;0.80;;
10823;SDS011;39116;59.332;18.034;2024-01-15T09:00:54;2.73;;;1.10;;
10823;SDS011;39116;59.332;18.034;2024-01-15T09:03:16;1.07;;;0.80;;
10823;SDS011;39116;59.332;18.034;2024-01-15T09:05:39;2.87;;;1.10;;
10823;SDS011;39116;59.332;18.034;2024-01-15T09:08:01;1.47;;;0.80;;
10823;SDS011;39116;59.332;18.034;2024-01-15T09:10:23;3.43;;;0.97;;
10823;SDS011;39116;59.332;18.034;2024-01-15T09:12:44;2.27;;;0.80;;
10823;SDS011;39116;59.332;18.034;2024-01-15T09:15:06;1.90;;;1.27;;
10823;SDS011;39116;59.332;18.034;2024-01-15T09:17:28;4.27;;;1.70;;
10823;SDS011;39116;59.332;18.034;2024-01-15T09:19:50;3.77;;;1.90;;
10823;SDS011;39116;59.332;18.034;2024-01-15T09:22:13;2.70;;;1.13;;
10823;SDS011;39116;59.332;18.034;2024-01-15T09:24:40;3.70;;;1.20;;
10823;SDS011;39116;59.332;18.034;2024-01-15T09:27:02;3.83;;;1.03;;
10823;SDS011;39116;59.332;18.034;2024-01-15T09:29:23;3.67;;;1.00;;
10823;SDS011;39116;59.332;18.034;2024-01-15T09:31:45;3.40;;;1.00;;
10823;SDS011;39116;59.332;18.034;2024-01-15T09:34:07;3.33;;;1.00;;
10823;SDS011;39116;59.332;18.034;2024-01-15T09:36:28;3.87;;;0.90;;
10823;SDS011;39116;59.332;18.034;2024-01-15T09:38:53;2.57;;;0.93;;
10823;SDS011;39116;59.332;18.034;2024-01-15T09:41:14;2.83;;;1.00;;
10823;SDS011;39116;59.332;18.034;2024-01-15T09:43:36;2.63;;;0.77;;
10823;SDS011;39116;59.332;18.034;2024-01-15T09:45:58;2.07;;;0.77;;
10823;SDS011;39116;59.332;18.034;2024-01-15T09:48:20;1.53;;;0.80;;
10823;SDS011;39116;59.332;18.034;2024-01-15T09:50:42;1.80;;;0.93;;
10823;SDS011;39116;59.332;18.034;2024-01-15T09:53:04;2.93;;;1.20;;
10823;SDS011;39116;59.332;18.034;2024-01-15T09:55:27;2.00;;;1.07;;
10823;SDS011;39116;59.332;18.034;2024-01-15T09:57:49;2.93;;;1.10;;
10823;SDS011;39116;59.332;18.034;2024-01-15T10:00:12;3.77;;;1.30;;
10823;SDS011;39116;59.332;18.034;2024-01-15T10:02:34;1.17;;;0.80;;
10823;SDS011;39116;59.332;18.034;2024-01-15T10:04:56;2.63;;;1.30;;
10823;SDS011;39116;59.332;18.034;2024-01-15T10:07:18;2.63;;;1.10;;
10823;SDS011;39116;59.332;18.034;2024-01-15T10:09:39;2.23;;;0.80;;
10823;SDS011;39116;59.332;18.034;2024-01-15T10:12:03;1.97;;;0.90;;
10823;SDS011;39116;59.332;18.034;2024-01-15T10:14:25;3.83;;;0.90;;
10823;SDS011;39116;59.332;18.034;2024-01-15T10:16:46;4.63;;;1.13;;
10823;SDS011;39116;59.332;18.034;2024-01-15T10:19:08;3.20;;;1.50;;
10823;SDS011;39116;59.332;18.034;2024-01-15T10:21:31;2.70;;;1.10;;
10823;SDS011;39116;59.332;18.034;2024-01-15T10:23:54;2.20;;;0.90;;
10823;SDS011;39116;59.332;18.034;2024-01-15T10:26:16;1.63;;;0.87;;
10823;SDS011;39116;59.332;18.034;2024-01-15T10:28:40;3.17;;;0.93;;
10823;SDS011;39116;59.332;18.034;2024-01-15T10:31:03;2.10;;;0.93;;
10823;SDS011;39116;59.332;18.034;2024-01-15T10:33:26;4.83;;;1.10;;
10823;SDS011;39116;59.332;18.034;2024-01-15T10:35:48;4.17;;;1.10;;
10823;SDS011;39116;59.332;18.034;2024-01-15T10:38:10;2.50;;;1.10;;
10823;SDS011;39116;59.332;18.034;2024-01-15T10:40:32;2.33;;;0.90;;
10823;SDS011;39116;59.332;18.034;2024-01-15T10:42:53;2.43;;;1.00;;
10823;SDS011;39116;59.332;18.034;2024-01-15T10:45:17;1.33;;;1.00;;
10823;SDS011;39116;59.332;18.034;2024-01-15T10:47:38;2.10;;;1.10;;
10823;SDS011;39116;59.332;18.034;2024-01-15T10:50:00;6.43;;;1.13;;
10823;SDS011;39116;59.332;18.034;2024-01-15T10:52:22;1.97;;;0.87;;
10823;SDS011;39116;59.332;18.034;2024-01-15T10:54:44;2.87;;;1.03;;
10823;SDS011;39116;59.332;18.034;2024-01-15T10:57:06;1.30;;;1.00;;
10823;SDS011;39116;59.332;18.034;2024-01-15T10:59:28;1.83;;;1.00;;
10823;SDS011;39116;59.332;18.034;2024-01-15T11:01:52;2.77;;;0.90;;
10823;SDS011;39116;59.332;18.034;2024-01-15T11:04:14;1.60;;;0.93;;
10823;SDS011;39116;59.332;18.034;2024-01-15T11:06:41;2.20;;;0.90;;
10823;SDS011;39116;59.332;18.034;2024-01-15T11:09:03;1.70;;;0.90;;
10823;SDS011;39116;59.332;18.034;2024-01-15T11:11:25;2.60;;;1.10;;
10823;SDS011;39116;59.332;18.034;2024-01-15T11:13:47;1.90;;;1.07;;
10823;SDS011;39116;59.332;18.034;2024-01-15T11:16:11;1.30;;;0.80;;
10823;SDS011;39116;59.332;18.034;2024-01-15T11:18:36;1.60;;;0.87;;
10823;SDS011;39116;59.332;18.034;2024-01-15T11:23:44;2.23;;;1.07;;
10823;SDS011;39116;59.332;18.034;2024-01-15T11:26:07;3.23;;;0.90;;
10823;SDS011;39116;59.332;18.034;2024-01-15T11:28:48;1.50;;;0.90;;
10823;SDS011;39116;59.332;18.034;2024-01-15T11:31:11;2.43;;;1.03;;
10823;SDS011;39116;59.332;18.034;2024-01-15T11:33:35;4.23;;;0.80;;
10823;SDS011;39116;59.332;18.034;2024-01-15T11:35:57;1.20;;;0.70;;
10823;SDS011;39116;59.332;18.034;2024-01-15T11:38:28;2.33;;;0.80;;
10823;SDS011;39116;59.332;18.034;2024-01-15T11:40:50;1.43;;;0.90;;
10823;SDS011;39116;59.332;18.034;2024-01-15T11:43:12;2.13;;;0.93;;
10823;SDS011;39116;59.332;18.034;2024-01-15T11:45:37;1.20;;;0.80;;
10823;SDS011;39116;59.332;18.034;2024-01-15T11:50:41;1.80;;;1.00;;
10823;SDS011;39116;59.332;18.034;2024-01-15T11:53:03;5.63;;;1.07;;
10823;SDS011;39116;59.332;18.034;2024-01-15T11:55:26;1.37;;;1.00;;
10823;SDS011;39116;59.332;18.034;2024-01-15T11:57:49;1.63;;;0.80;;
10823;SDS011;39116;59.332;18.034;2024-01-15T12:00:12;2.17;;;0.90;;
10823;SDS011;39116;59.332;18.034;2024-01-15T12:02:34;1.47;;;0.80;;
10823;SDS011;39116;59.332;18.034;2024-01-15T12:04:55;2.70;;;0.70;;
10823;SDS011;39116;59.332;18.034;2024-01-15T12:07:18;2.00;;;0.90;;
10823;SDS011;39116;59.332;18.034;2024-01-15T12:09:42;2.53;;;0.70;;
10823;SDS011;39116;59.332;18.034;2024-01-15T12:12:07;3.70;;;1.00;;
10823;SDS011;39116;59.332;18.034;2024-01-15T12:14:34;4.23;;;0.97;;
10823;SDS011;39116;59.332;18.034;2024-01-15T12:16:55;2.27;;;1.00;;
10823;SDS011;39116;59.332;18.034;2024-01-15T12:19:17;3.80;;;0.90;;
10823;SDS011;39116;59.332;18.034;2024-01-15T12:21:40;1.23;;;0.70;;
10823;SDS011;39116;59.332;18.034;2024-01-15T12:24:03;2.17;;;0.87;;
10823;SDS011;39116;59.332;18.034;2024-01-15T12:26:25;3.37;;;1.00;;
10823;SDS011;39116;59.332;18.034;2024-01-15T12:28:46;2.47;;;1.00;;
10823;SDS011;39116;59.332;18.034;2024-01-15T12:31:08;2.00;;;1.00;;
10823;SDS011;39116;59.332;18.034;2024-01-15T12:33:30;3.43;;;1.13;;
10823;SDS011;39116;59.332;18.034;2024-01-15T12:35:52;1.60;;;0.90;;
10823;SDS011;39116;59.332;18.034;2024-01-15T12:38:14;2.77;;;1.03;;
10823;SDS011;39116;59.332;18.034;2024-01-15T12:40:37;1.87;;;1.20;;
10823;SDS011;39116;59.332;18.034;2024-01-15T12:42:59;3.03;;;1.10;;
10823;SDS011;39116;59.332;18.034;2024-01-15T12:45:20;2.53;;;1.00;;
10823;SDS011;39116;59.332;18.034;2024-01-15T12:47:42;2.90;;;1.00;;
10823;SDS011;39116;59.332;18.034;2024-01-15T12:50:06;1.90;;;1.00;;
10823;SDS011;39116;59.332;18.034;2024-01-15T12:52:28;1.97;;;0.83;;
10823;SDS011;39116;59.332;18.034;2024-01-15T12:54:51;2.20;;;1.10;;
10823;SDS011;39116;59.332;18.034;2024-01-15T12:57:14;1.90;;;0.97;;
10823;SDS011;39116;59.332;18.034;2024-01-15T12:59:36;3.87;;;0.97;;
10823;SDS011;39116;59.332;18.034;2024-01-15T13:01:57;2.07;;;0.90;;
10823;SDS011;39116;59.332;18.034;2024-01-15T13:04:22;1.47;;;0.90;;
10823;SDS011;39116;59.332;18.034;2024-01-15T13:06:44;3.57;;;1.07;;
10823;SDS011;39116;59.332;18.034;2024-01-15T13:09:05;3.87;;;1.20;;
10823;SDS011;39116;59.332;18.034;2024-01-15T13:11:30;2.17;;;0.90;;
10823;SDS011;39116;59.332;18.034;2024-01-15T13:13:53;4.00;;;1.13;;
10823;SDS011;39116;59.332;18.034;2024-01-15T13:16:15;2.93;;;0.80;;
10823;SDS011;39116;59.332;18.034;2024-01-15T13:18:36;2.20;;;1.07;;
10823;SDS011;39116;59.332;18.034;2024-01-15T13:20:58;2.20;;;0.87;;
10823;SDS011;39116;59.332;18.034;2024-01-15T13:23:20;1.83;;;0.90;;
10823;SDS011;39116;59.332;18.034;2024-01-15T13:25:42;2.93;;;0.93;;
10823;SDS011;39116;59.332;18.034;2024-01-15T13:28:04;2.13;;;0.80;;
10823;SDS011;39116;59.332;18.034;2024-01-15T13:30:27;2.63;;;1.20;;
10823;SDS011;39116;59.332;18.034;2024-01-15T13:32:48;2.83;;;0.83;;
10823;SDS011;39116;59.332;18.034;2024-01-15T13:35:10;3.03;;;1.00;;
10823;SDS011;39116;59.332;18.034;2024-01-15T13:37:33;2.17;;;1.07;;
10823;SDS011;39116;59.332;18.034;2024-01-15T13:39:54;2.53;;;1.07;;
10823;SDS011;39116;59.332;18.034;2024-01-15T13:42:16;1.50;;;0.80;;
10823;SDS011;39116;59.332;18.034;2024-01-15T13:44:38;2.93;;;1.27;;
10823;SDS011;39116;59.332;18.034;2024-01-15T13:47:04;3.57;;;1.10;;
10823;SDS011;39116;59.332;18.034;2024-01-15T13:49:26;3.13;;;1.00;;
10823;SDS011;39116;59.332;18.034;2024-01-15T13:51:48;6.07;;;1.20;;
10823;SDS011;39116;59.332;18.034;2024-01-15T13:54:10;2.17;;;0.80;;
10823;SDS011;39116;59.332;18.034;2024-01-15T13:56:31;2.60;;;0.60;;
10823;SDS011;39116;59.332;18.034;2024-01-15T13:58:55;0.93;;;0.73;;
10823;SDS011;39116;59.332;18.034;2024-01-15T14:01:18;2.27;;;0.87;;
10823;SDS011;39116;59.332;18.034;2024-01-15T14:03:41;1.73;;;0.87;;
10823;SDS011;39116;59.332;18.034;2024-01-15T14:06:03;1.97;;;1.00;;
10823;SDS011;39116;59.332;18.034;2024-01-15T14:08:28;3.70;;;0.90;;
10823;SDS011;39116;59.332;18.034;2024-01-15T14:10:50;1.90;;;0.90;;